createdAt,value
2023-05-14T00:01:28.146Z,23.98
2023-05-14T00:03:54.753Z,36.55
2023-05-14T00:06:21.484Z,24.23
2023-05-14T00:08:48.002Z,57.70
2023-05-14T00:11:14.543Z,20.70
2023-05-14T00:13:41.208Z,28.05
2023-05-14T00:16:07.743Z,24.25
2023-05-14T00:18:34.423Z,24.38
2023-05-14T00:21:01.238Z,43.38
2023-05-14T00:23:27.798Z,27.58
2023-05-14T00:25:54.428Z,35.45
2023-05-14T00:28:20.991Z,25.38
2023-05-14T00:30:48.698Z,62.25
2023-05-14T00:33:15.567Z,26.77
2023-05-14T00:35:42.082Z,31.05
2023-05-14T00:38:08.607Z,40.00
2023-05-14T00:40:35.207Z,35.67
2023-05-14T00:43:01.754Z,24.00
2023-05-14T00:45:28.333Z,30.17
2023-05-14T00:47:54.962Z,34.30
2023-05-14T00:50:21.862Z,61.05
2023-05-14T00:52:48.856Z,53.30
2023-05-14T00:55:16.508Z,40.45
2023-05-14T00:57:43.917Z,54.63
2023-05-14T01:00:16.766Z,63.13
2023-05-14T01:02:43.520Z,79.80
2023-05-14T01:05:10.312Z,36.58
2023-05-14T01:07:43.701Z,28.60
2023-05-14T01:10:34.281Z,60.10
2023-05-14T01:13:21.209Z,21.77
2023-05-14T01:15:48.449Z,39.42
2023-05-14T01:18:18.236Z,54.63
2023-05-14T01:20:45.411Z,22.20
2023-05-14T01:23:12.494Z,34.45
2023-05-14T01:25:39.009Z,24.65
2023-05-14T01:28:25.715Z,33.03
2023-05-14T01:31:04.792Z,26.27
2023-05-14T01:33:33.845Z,22.45
2023-05-14T01:36:00.626Z,28.10
2023-05-14T01:38:30.247Z,25.50
2023-05-14T01:40:57.158Z,28.67
2023-05-14T01:43:24.006Z,30.67
2023-05-14T01:45:50.674Z,42.78
2023-05-14T01:48:18.248Z,26.38
2023-05-14T01:50:44.786Z,23.30
2023-05-14T01:53:11.460Z,47.13
2023-05-14T01:55:37.917Z,26.92
2023-05-14T01:58:04.516Z,55.83
2023-05-14T02:00:31.530Z,27.42
2023-05-14T02:02:58.506Z,38.17
2023-05-14T02:05:25.260Z,28.25
2023-05-14T02:07:54.060Z,33.70
2023-05-14T02:10:21.411Z,46.20
2023-05-14T02:12:50.921Z,31.60
2023-05-14T02:15:17.457Z,43.72
2023-05-14T02:17:44.127Z,27.55
2023-05-14T02:20:11.277Z,43.95
2023-05-14T02:22:37.985Z,26.05
2023-05-14T02:25:04.810Z,35.90
2023-05-14T02:27:31.517Z,25.35
2023-05-14T02:30:00.940Z,34.00
2023-05-14T02:32:28.340Z,24.33
2023-05-14T02:34:55.037Z,35.83
2023-05-14T02:37:21.804Z,27.50
2023-05-14T02:39:49.056Z,28.48
2023-05-14T02:42:15.771Z,24.65
2023-05-14T02:44:42.328Z,26.52
2023-05-14T02:47:08.874Z,43.17
2023-05-14T02:49:35.458Z,27.83
2023-05-14T02:52:01.990Z,75.35
2023-05-14T02:54:28.529Z,29.80
2023-05-14T02:56:55.162Z,36.75
2023-05-14T02:59:23.559Z,26.30
2023-05-14T03:01:50.815Z,25.35
2023-05-14T03:04:17.989Z,39.72
2023-05-14T03:06:44.578Z,34.88
2023-05-14T03:09:11.142Z,24.92
2023-05-14T03:11:37.690Z,28.63
2023-05-14T03:14:04.271Z,56.60
2023-05-14T03:16:30.903Z,28.50
2023-05-14T03:18:57.824Z,37.70
2023-05-14T03:21:24.803Z,27.63
2023-05-14T03:23:52.888Z,85.10
2023-05-14T03:26:19.441Z,30.38
2023-05-14T03:28:46.345Z,47.80
2023-05-14T03:31:12.926Z,28.55
2023-05-14T03:33:39.932Z,33.63
2023-05-14T03:36:06.547Z,35.28
2023-05-14T03:38:33.179Z,34.60
2023-05-14T03:40:59.696Z,31.83
2023-05-14T03:43:26.351Z,37.15
2023-05-14T03:45:53.119Z,50.67
2023-05-14T03:48:20.141Z,32.70
2023-05-14T03:50:46.996Z,32.30
2023-05-14T03:53:13.596Z,40.13
2023-05-14T03:55:40.102Z,32.95
2023-05-14T03:58:14.571Z,41.87
2023-05-14T04:00:44.257Z,28.67
2023-05-14T04:03:11.719Z,41.15
2023-05-14T04:05:38.328Z,31.48
2023-05-14T04:08:05.770Z,41.95
2023-05-14T04:10:32.287Z,32.17
2023-05-14T04:13:00.034Z,38.70
2023-05-14T04:15:31.072Z,30.90
2023-05-14T04:17:57.820Z,38.00
2023-05-14T04:20:24.953Z,31.02
2023-05-14T04:22:52.287Z,32.08
2023-05-14T04:25:18.890Z,51.53
2023-05-14T04:27:45.716Z,28.48
2023-05-14T04:30:12.700Z,49.60
2023-05-14T04:32:39.276Z,30.60
2023-05-14T04:35:06.609Z,44.30
2023-05-14T04:37:33.243Z,29.45
2023-05-14T04:39:59.844Z,35.63
2023-05-14T04:42:26.402Z,29.58
2023-05-14T04:44:53.005Z,31.48
2023-05-14T04:47:21.018Z,31.70
2023-05-14T04:49:47.919Z,29.95
2023-05-14T04:52:14.509Z,49.95
2023-05-14T04:54:41.093Z,28.83
2023-05-14T04:57:07.636Z,79.57
2023-05-14T04:59:34.126Z,30.55
2023-05-14T05:02:00.738Z,38.05
2023-05-14T05:04:27.776Z,30.88
2023-05-14T05:06:54.377Z,45.47
2023-05-14T05:09:20.961Z,33.30
2023-05-14T05:11:47.658Z,35.08
2023-05-14T05:14:14.298Z,38.92
2023-05-14T05:16:40.964Z,34.45
2023-05-14T05:19:07.518Z,68.20
2023-05-14T05:21:34.804Z,31.25
2023-05-14T05:24:01.448Z,43.85
2023-05-14T05:26:28.051Z,35.28
2023-05-14T05:28:54.580Z,49.17
2023-05-14T05:31:21.153Z,38.00
2023-05-14T05:33:47.939Z,38.40
2023-05-14T05:36:14.479Z,45.30
2023-05-14T05:38:41.043Z,38.78
2023-05-14T05:41:07.608Z,65.65
2023-05-14T05:43:34.161Z,39.03
2023-05-14T05:46:01.032Z,63.13
2023-05-14T05:48:27.584Z,38.88
2023-05-14T05:50:54.243Z,56.40
2023-05-14T05:53:20.816Z,38.00
2023-05-14T05:55:47.351Z,69.20
2023-05-14T05:58:15.701Z,37.25
2023-05-14T06:00:42.174Z,46.17
2023-05-14T06:03:08.730Z,34.28
2023-05-14T06:05:35.733Z,51.90
2023-05-14T06:08:02.507Z,31.73
2023-05-14T06:10:29.136Z,35.72
2023-05-14T06:12:55.654Z,46.38
2023-05-14T06:15:22.927Z,33.63
2023-05-14T06:17:49.481Z,56.65
2023-05-14T06:20:16.093Z,44.92
2023-05-14T06:22:42.574Z,37.33
2023-05-14T06:25:09.641Z,43.53
2023-05-14T06:27:36.172Z,37.38
2023-05-14T06:30:03.040Z,28.63
2023-05-14T06:32:29.585Z,30.35
2023-05-14T06:34:56.112Z,31.13
2023-05-14T06:37:22.656Z,29.45
2023-05-14T06:39:50.377Z,35.47
2023-05-14T06:42:17.357Z,27.50
2023-05-14T06:44:44.485Z,35.45
2023-05-14T06:47:11.023Z,26.80
2023-05-14T06:49:37.943Z,39.63
2023-05-14T06:52:04.701Z,26.23
2023-05-14T06:54:31.261Z,28.60
2023-05-14T06:56:57.755Z,35.47
2023-05-14T06:59:24.309Z,29.00
2023-05-14T07:01:50.888Z,32.95
2023-05-14T07:04:17.577Z,31.25
2023-05-14T07:06:44.242Z,29.45
2023-05-14T07:09:10.741Z,25.77
2023-05-14T07:11:37.296Z,32.55
2023-05-14T07:14:03.789Z,26.35
2023-05-14T07:16:30.435Z,31.40
2023-05-14T07:18:56.997Z,23.00
2023-05-14T07:21:23.692Z,28.27
2023-05-14T07:23:50.223Z,24.80
2023-05-14T07:26:16.878Z,27.77
2023-05-14T07:28:43.410Z,24.48
2023-05-14T07:31:09.970Z,24.13
2023-05-14T07:33:36.582Z,29.05
2023-05-14T07:36:03.122Z,25.15
2023-05-14T07:38:29.661Z,30.88
2023-05-14T07:40:56.433Z,25.23
2023-05-14T07:43:22.966Z,53.35
2023-05-14T07:45:49.490Z,25.52
2023-05-14T07:48:16.056Z,26.75
2023-05-14T07:50:42.672Z,24.38
2023-05-14T07:53:09.207Z,23.20
2023-05-14T07:55:35.750Z,39.08
2023-05-14T07:58:02.307Z,23.13
2023-05-14T08:00:28.893Z,50.53
2023-05-14T08:02:55.741Z,21.95
2023-05-14T08:05:22.582Z,71.47
2023-05-14T08:07:49.171Z,23.70
2023-05-14T08:10:16.585Z,52.90
2023-05-14T08:12:43.091Z,19.83
2023-05-14T08:15:09.972Z,38.63
2023-05-14T08:17:36.591Z,24.02
2023-05-14T08:20:03.325Z,19.60
2023-05-14T08:22:29.892Z,26.75
2023-05-14T08:24:56.386Z,19.58
2023-05-14T08:27:22.994Z,341.42
2023-05-14T08:29:49.473Z,121.57
2023-05-14T08:32:23.526Z,209.85
2023-05-14T08:34:50.886Z,251.80
2023-05-14T08:37:17.372Z,411.00
2023-05-14T08:39:43.873Z,386.45
2023-05-14T08:42:12.757Z,488.10
2023-05-14T08:44:50.398Z,371.40
2023-05-14T08:47:18.915Z,435.10
2023-05-14T08:49:47.275Z,340.85
2023-05-14T08:52:15.733Z,363.30
2023-05-14T08:54:42.677Z,332.58
2023-05-14T08:57:10.289Z,373.50
2023-05-14T08:59:37.234Z,398.20
2023-05-14T09:02:06.694Z,450.80
2023-05-14T09:04:34.546Z,500.20
2023-05-14T09:07:03.275Z,592.05
2023-05-14T09:09:30.666Z,476.05
2023-05-14T09:11:57.208Z,462.65
2023-05-14T09:14:24.039Z,404.80
2023-05-14T09:16:51.303Z,315.13
2023-05-14T09:19:19.534Z,329.10
2023-05-14T09:21:47.482Z,175.25
2023-05-14T09:24:25.196Z,259.27
2023-05-14T09:26:56.426Z,225.88
2023-05-14T09:31:56.837Z,256.88
2023-05-14T09:34:34.362Z,26.25
2023-05-14T09:37:08.485Z,112.88
2023-05-14T09:39:36.607Z,152.10
2023-05-14T09:42:03.654Z,247.82
2023-05-14T09:44:30.259Z,278.63
2023-05-14T09:46:56.959Z,219.65
2023-05-14T09:49:23.562Z,199.25
2023-05-14T09:51:50.452Z,227.82
2023-05-14T09:54:17.516Z,261.10
2023-05-14T09:56:44.496Z,129.27
2023-05-14T09:59:11.384Z,114.05
2023-05-14T10:01:38.220Z,162.07
2023-05-14T10:04:07.684Z,91.00
2023-05-14T10:06:37.380Z,148.95
2023-05-14T10:09:05.862Z,199.40
2023-05-14T10:11:37.753Z,167.90
2023-05-14T10:14:41.450Z,265.88
2023-05-14T10:17:08.069Z,214.23
2023-05-14T10:19:35.297Z,130.82
2023-05-14T10:22:07.588Z,119.20
2023-05-14T10:24:34.291Z,122.90
2023-05-14T10:27:01.239Z,85.10
2023-05-14T10:29:34.834Z,80.47
2023-05-14T10:32:07.515Z,436.27
2023-05-14T10:34:37.854Z,255.05
2023-05-14T10:37:15.952Z,110.68
2023-05-14T10:39:43.780Z,93.38
2023-05-14T10:42:33.126Z,181.25
2023-05-14T10:45:02.392Z,259.83
2023-05-14T10:47:29.514Z,194.10
2023-05-14T10:50:01.293Z,142.55
2023-05-14T10:52:27.829Z,189.80
2023-05-14T10:54:59.181Z,152.57
2023-05-14T10:57:28.789Z,255.90
2023-05-14T10:59:57.148Z,251.35
2023-05-14T11:02:26.094Z,296.15
2023-05-14T11:04:54.800Z,177.63
2023-05-14T11:07:27.342Z,149.73
2023-05-14T11:09:54.207Z,201.35
2023-05-14T11:12:22.612Z,61.65
2023-05-14T11:14:50.635Z,148.65
2023-05-14T11:17:17.642Z,158.68
2023-05-14T11:19:45.625Z,160.57
2023-05-14T11:22:15.477Z,104.72
2023-05-14T11:24:42.067Z,102.30
2023-05-14T11:27:09.392Z,94.50
2023-05-14T11:29:37.356Z,85.30
2023-05-14T11:32:07.505Z,109.95
2023-05-14T11:34:37.263Z,126.57
2023-05-14T11:37:05.140Z,153.60
2023-05-14T11:39:33.019Z,199.02
2023-05-14T11:42:02.648Z,167.32
2023-05-14T11:44:29.152Z,202.30
2023-05-14T11:46:59.537Z,217.25
2023-05-14T11:49:28.975Z,170.77
2023-05-14T11:51:59.421Z,74.93
2023-05-14T11:54:27.633Z,53.25
2023-05-14T11:56:57.911Z,93.72
2023-05-14T11:59:25.633Z,55.78
2023-05-14T12:01:54.719Z,49.35
2023-05-14T12:04:22.772Z,113.40
2023-05-14T12:06:50.779Z,120.25
2023-05-14T12:09:20.842Z,69.80
2023-05-14T12:11:48.952Z,44.72
2023-05-14T12:14:20.540Z,28.15
2023-05-14T12:16:47.617Z,19.30
2023-05-14T12:19:16.063Z,58.83
2023-05-14T12:21:44.121Z,55.00
2023-05-14T12:24:15.625Z,13.60
2023-05-14T12:26:46.664Z,13.82
2023-05-14T12:29:14.412Z,33.80
2023-05-14T12:31:49.432Z,10.70
2023-05-14T12:34:16.928Z,16.05
2023-05-14T12:36:44.346Z,16.73
2023-05-14T12:39:12.362Z,34.45
2023-05-14T12:41:38.889Z,91.07
2023-05-14T12:44:05.852Z,63.70
2023-05-14T12:46:33.125Z,103.40
2023-05-14T12:48:59.744Z,89.40
2023-05-14T12:51:26.351Z,129.73
2023-05-14T12:53:54.189Z,90.20
2023-05-14T12:56:21.460Z,58.35
2023-05-14T12:58:48.155Z,70.43
2023-05-14T13:01:14.875Z,37.33
2023-05-14T13:03:41.601Z,14.25
2023-05-14T13:06:08.350Z,28.00
2023-05-14T13:08:35.237Z,61.47
2023-05-14T13:11:01.713Z,23.88
2023-05-14T13:13:28.375Z,42.33
2023-05-14T13:15:55.474Z,201.15
2023-05-14T13:18:22.000Z,573.67
2023-05-14T13:20:48.889Z,739.05
2023-05-14T13:23:15.545Z,691.88
2023-05-14T13:25:42.206Z,671.17
2023-05-14T13:28:09.350Z,621.72
2023-05-14T13:30:35.993Z,700.75
2023-05-14T13:33:02.702Z,592.78
2023-05-14T13:35:29.409Z,628.63
2023-05-14T13:37:55.983Z,592.97
2023-05-14T13:40:22.700Z,623.60
2023-05-14T13:42:49.355Z,660.35
2023-05-14T13:45:16.465Z,730.53
2023-05-14T13:47:43.128Z,718.35
2023-05-14T13:50:10.053Z,642.83
2023-05-14T13:52:37.730Z,632.78
2023-05-14T13:55:04.742Z,510.33
2023-05-14T13:57:31.235Z,531.05
2023-05-14T13:59:57.832Z,530.83
2023-05-14T14:02:24.385Z,562.15
2023-05-14T14:04:51.031Z,553.67
2023-05-14T14:07:17.685Z,531.97
2023-05-14T14:09:45.089Z,505.60
2023-05-14T14:12:11.668Z,436.33
2023-05-14T14:14:39.280Z,444.15
2023-05-14T14:17:08.907Z,390.23
2023-05-14T14:19:35.659Z,402.52
2023-05-14T14:22:02.275Z,400.27
2023-05-14T14:24:28.829Z,426.08
2023-05-14T14:26:55.414Z,470.42
2023-05-14T14:29:23.757Z,402.23
2023-05-14T14:31:50.379Z,556.75
2023-05-14T14:34:16.917Z,440.77
2023-05-14T14:36:43.441Z,436.23
2023-05-14T14:39:10.061Z,518.35
2023-05-14T14:41:36.614Z,457.15
2023-05-14T14:44:03.210Z,534.35
2023-05-14T14:46:29.842Z,550.53
2023-05-14T14:48:56.507Z,653.35
2023-05-14T14:51:23.282Z,568.63
2023-05-14T14:53:49.925Z,592.38
2023-05-14T14:56:16.469Z,567.38
2023-05-14T14:58:43.082Z,540.85
2023-05-14T15:01:09.708Z,557.25
2023-05-14T15:03:36.476Z,531.70
2023-05-14T15:06:03.151Z,523.92
2023-05-14T15:08:29.755Z,465.13
2023-05-14T15:10:57.192Z,507.00
2023-05-14T15:13:24.625Z,447.25
2023-05-14T15:15:53.022Z,434.05
2023-05-14T15:18:19.773Z,396.92
2023-05-14T15:20:46.671Z,389.70
2023-05-14T15:23:13.370Z,387.92
2023-05-14T15:25:39.934Z,389.80
2023-05-14T15:28:09.207Z,381.23
2023-05-14T15:30:36.071Z,390.80
2023-05-14T15:33:02.810Z,379.95
2023-05-14T15:35:29.583Z,463.23
2023-05-14T15:37:59.183Z,368.92
2023-05-14T15:40:27.351Z,455.45
2023-05-14T15:42:54.129Z,358.45
2023-05-14T15:45:21.340Z,495.17
2023-05-14T15:47:48.305Z,436.00
2023-05-14T15:50:14.919Z,387.15
2023-05-14T15:52:41.622Z,371.88
2023-05-14T15:55:08.684Z,394.73
2023-05-14T15:57:35.280Z,364.20
2023-05-14T16:00:10.248Z,374.48
2023-05-14T16:02:37.969Z,353.90
2023-05-14T16:05:05.012Z,349.60
2023-05-14T16:07:32.222Z,351.48
2023-05-14T16:09:58.954Z,373.98
2023-05-14T16:12:25.797Z,341.48
2023-05-14T16:14:52.328Z,374.98
2023-05-14T16:17:18.934Z,339.05
2023-05-14T16:19:45.569Z,384.23
2023-05-14T16:22:12.056Z,312.02
2023-05-14T16:24:38.664Z,360.00
2023-05-14T16:27:05.629Z,328.85
2023-05-14T16:29:32.407Z,332.40
2023-05-14T16:31:59.260Z,341.23
2023-05-14T16:34:25.873Z,322.13
2023-05-14T16:36:52.712Z,314.25
2023-05-14T16:39:19.398Z,326.65
2023-05-14T16:41:45.849Z,299.98
2023-05-14T16:44:12.500Z,321.58
2023-05-14T16:46:39.637Z,293.20
2023-05-14T16:49:06.898Z,326.40
2023-05-14T16:51:33.602Z,295.60
2023-05-14T16:54:00.495Z,303.27
2023-05-14T16:56:27.184Z,284.13
2023-05-14T16:58:53.706Z,269.88
2023-05-14T17:01:20.362Z,277.70
2023-05-14T17:03:47.038Z,278.08
2023-05-14T17:06:13.568Z,365.92
2023-05-14T17:08:40.094Z,262.00
2023-05-14T17:11:06.707Z,292.77
2023-05-14T17:13:33.662Z,8.10
2023-05-14T17:16:01.007Z,299.58
2023-05-14T17:18:29.812Z,254.63
2023-05-14T17:20:56.734Z,251.98
2023-05-14T17:23:23.824Z,273.90
2023-05-14T17:25:50.529Z,254.77
2023-05-14T17:28:17.130Z,242.60
2023-05-14T17:30:43.837Z,274.35
2023-05-14T17:33:11.434Z,248.70
2023-05-14T17:35:38.142Z,274.33
2023-05-14T17:38:04.775Z,257.05
2023-05-14T17:40:31.517Z,254.25
2023-05-14T17:42:58.087Z,222.93
2023-05-14T17:45:25.255Z,244.43
2023-05-14T17:47:52.230Z,245.98
2023-05-14T17:50:21.634Z,294.73
2023-05-14T17:52:48.310Z,253.18
2023-05-14T17:55:15.253Z,287.35
2023-05-14T17:57:42.105Z,259.00
2023-05-14T18:00:09.466Z,289.48
2023-05-14T18:02:39.384Z,308.90
2023-05-14T18:05:06.421Z,260.67
2023-05-14T18:07:33.293Z,237.70
2023-05-14T18:09:59.816Z,216.43
2023-05-14T18:12:27.622Z,233.55
2023-05-14T18:14:54.587Z,234.50
2023-05-14T18:17:21.203Z,209.25
2023-05-14T18:19:48.132Z,246.32
2023-05-14T18:22:15.446Z,216.02
2023-05-14T18:24:44.088Z,384.15
2023-05-14T18:27:11.003Z,216.45
2023-05-14T18:29:37.571Z,250.18
2023-05-14T18:32:04.838Z,222.98
2023-05-14T18:34:31.503Z,268.40
2023-05-14T18:36:58.747Z,215.90
2023-05-14T18:39:25.744Z,234.63
2023-05-14T18:41:52.572Z,216.63
2023-05-14T18:44:19.371Z,224.13
2023-05-14T18:46:46.116Z,249.65
2023-05-14T18:49:12.867Z,232.95
2023-05-14T18:51:39.511Z,268.15
2023-05-14T18:54:06.159Z,226.20
2023-05-14T18:56:32.728Z,233.70
2023-05-14T18:58:59.709Z,225.25
2023-05-14T19:01:26.416Z,298.33
2023-05-14T19:03:53.421Z,238.70
2023-05-14T19:06:20.320Z,230.32
2023-05-14T19:08:46.894Z,250.05
2023-05-14T19:11:13.493Z,326.60
2023-05-14T19:13:40.074Z,257.65
2023-05-14T19:16:06.665Z,216.15
2023-05-14T19:18:34.383Z,236.30
2023-05-14T19:21:01.293Z,241.50
2023-05-14T19:23:27.915Z,232.18
2023-05-14T19:25:54.429Z,221.43
2023-05-14T19:28:21.136Z,214.88
2023-05-14T19:30:47.819Z,203.45
2023-05-14T19:33:14.534Z,272.27
2023-05-14T19:35:41.242Z,209.10
2023-05-14T19:38:09.507Z,302.80
2023-05-14T19:40:36.263Z,201.13
2023-05-14T19:43:03.134Z,221.30
2023-05-14T19:45:29.949Z,200.38
2023-05-14T19:47:56.905Z,221.07
2023-05-14T19:50:23.652Z,222.20
2023-05-14T19:52:50.268Z,214.82
2023-05-14T19:55:16.842Z,277.70
2023-05-14T19:57:43.396Z,215.55
2023-05-14T20:00:10.919Z,281.17
2023-05-14T20:02:37.484Z,166.85
2023-05-14T20:05:06.652Z,357.60
2023-05-14T20:07:33.328Z,202.75
2023-05-14T20:09:59.928Z,234.40
2023-05-14T20:12:27.669Z,210.00
2023-05-14T20:14:54.367Z,208.77
2023-05-14T20:17:21.121Z,197.85
2023-05-14T20:19:47.788Z,214.57
2023-05-14T20:22:14.970Z,211.15
2023-05-14T20:24:41.539Z,198.13
2023-05-14T20:27:08.200Z,208.52
2023-05-14T20:29:34.774Z,217.63
2023-05-14T20:32:01.311Z,199.43
2023-05-14T20:34:27.833Z,299.10
2023-05-14T20:36:54.467Z,194.85
2023-05-14T20:39:21.053Z,185.73
2023-05-14T20:41:47.685Z,208.95
2023-05-14T20:44:14.222Z,166.65
2023-05-14T20:46:40.903Z,156.77
2023-05-14T20:49:07.767Z,164.57
2023-05-14T20:51:34.439Z,278.50
2023-05-14T20:54:00.954Z,150.30
2023-05-14T20:56:27.541Z,182.63
2023-05-14T20:58:54.072Z,161.07
2023-05-14T21:01:21.275Z,295.67
2023-05-14T21:03:48.117Z,149.63
2023-05-14T21:06:14.888Z,182.55
2023-05-14T21:08:41.431Z,156.60
2023-05-14T21:11:08.663Z,206.88
2023-05-14T21:13:35.576Z,167.07
2023-05-14T21:16:02.320Z,154.30
2023-05-14T21:18:32.343Z,182.20
2023-05-14T21:20:58.994Z,166.45
2023-05-14T21:23:26.003Z,200.90
2023-05-14T21:25:54.640Z,182.90
2023-05-14T21:28:22.146Z,155.90
2023-05-14T21:30:50.130Z,227.13
2023-05-14T21:33:17.623Z,166.48
2023-05-14T21:35:44.408Z,182.32
2023-05-14T21:38:11.130Z,155.13
2023-05-14T21:40:37.669Z,298.17
2023-05-14T21:43:04.214Z,157.10
2023-05-14T21:45:30.758Z,178.00
2023-05-14T21:47:57.419Z,162.65
2023-05-14T21:50:23.926Z,168.63
2023-05-14T21:52:50.465Z,166.07
2023-05-14T21:55:17.061Z,213.13
2023-05-14T21:57:43.560Z,183.15
2023-05-14T22:00:12.902Z,200.30
2023-05-14T22:02:41.635Z,182.52
2023-05-14T22:05:08.281Z,204.30
2023-05-14T22:07:34.807Z,262.67
2023-05-14T22:10:01.427Z,158.18
2023-05-14T22:12:27.985Z,169.40
2023-05-14T22:14:54.561Z,156.13
2023-05-14T22:17:21.808Z,155.88
2023-05-14T22:19:48.332Z,165.23
2023-05-14T22:22:14.846Z,152.02
2023-05-14T22:24:41.559Z,146.75
2023-05-14T22:27:08.082Z,206.30
2023-05-14T22:29:36.186Z,152.30
2023-05-14T22:32:07.590Z,205.68
2023-05-14T22:34:34.120Z,151.73
2023-05-14T22:37:00.630Z,151.95
2023-05-14T22:39:27.174Z,178.60
2023-05-14T22:41:55.085Z,193.57
2023-05-14T22:44:22.378Z,171.45
2023-05-14T22:46:49.330Z,145.98
2023-05-14T22:49:16.053Z,175.65
2023-05-14T22:51:42.634Z,307.25
2023-05-14T22:54:09.883Z,138.90
2023-05-14T22:56:37.707Z,289.10
2023-05-14T22:59:04.255Z,140.30
2023-05-14T23:01:31.468Z,243.98
2023-05-14T23:03:58.041Z,202.90
2023-05-14T23:06:24.934Z,155.85
2023-05-14T23:08:51.404Z,169.13
2023-05-14T23:11:18.055Z,181.40
2023-05-14T23:13:44.611Z,165.27
2023-05-14T23:16:11.190Z,145.68
2023-05-14T23:18:40.441Z,334.45
2023-05-14T23:21:07.241Z,176.80
2023-05-14T23:23:33.827Z,175.57
2023-05-14T23:26:00.353Z,145.27
2023-05-14T23:28:26.881Z,275.90
2023-05-14T23:30:53.601Z,147.15
2023-05-14T23:33:20.151Z,182.43
2023-05-14T23:35:48.184Z,146.27
2023-05-14T23:38:14.727Z,170.88
2023-05-14T23:40:41.267Z,147.02
2023-05-14T23:43:07.997Z,172.27
2023-05-14T23:45:34.632Z,156.30
2023-05-14T23:48:01.619Z,145.80
2023-05-14T23:50:28.249Z,168.93
2023-05-14T23:52:55.795Z,147.65
2023-05-14T23:55:22.542Z,172.68
2023-05-14T23:57:49.458Z,150.82
